createdAt,value
2019-03-15T00:00:02.016Z,1001.123
2019-03-15T00:00:13.799Z,1001.1232
2019-03-15T00:00:26.269Z,1001.0859
2019-03-15T00:00:37.286Z,1001.1465
2019-03-15T00:00:49.032Z,1001.1235
2019-03-15T00:01:00.802Z,1001.1237
2019-03-15T00:01:12.541Z,1001.0795
2019-03-15T00:01:24.326Z,1001.1673
2019-03-15T00:01:36.146Z,1001.1121
2019-03-15T00:01:47.856Z,1001.1347
2019-03-15T00:01:59.601Z,1001.1514
2019-03-15T00:02:11.342Z,1001.1252
2019-03-15T00:02:23.106Z,1001.1434
2019-03-15T00:02:34.905Z,1001.1203
2019-03-15T00:02:46.762Z,1001.1587
2019-03-15T00:02:58.440Z,1001.116
2019-03-15T00:03:10.251Z,1001.1291
2019-03-15T00:03:22.016Z,1001.1598
2019-03-15T00:03:33.757Z,1001.1352
2019-03-15T00:03:45.512Z,1001.1515
2019-03-15T00:03:57.265Z,1001.1679
2019-03-15T00:04:09.029Z,1001.1696
2019-03-15T00:04:20.792Z,1001.15
2019-03-15T00:04:32.546Z,1001.1929
2019-03-15T00:04:44.298Z,1001.1559
2019-03-15T00:04:56.069Z,1001.2017
2019-03-15T00:05:07.834Z,1001.1978
2019-03-15T00:05:19.618Z,1001.2338
2019-03-15T00:05:31.379Z,1001.229
2019-03-15T00:05:43.111Z,1001.2095
2019-03-15T00:05:54.882Z,1001.2552
2019-03-15T00:06:06.626Z,1001.2962
2019-03-15T00:06:18.380Z,1001.2181
2019-03-15T00:06:30.139Z,1001.2471
2019-03-15T00:06:41.900Z,1001.2788
2019-03-15T00:06:53.675Z,1001.3093
2019-03-15T00:07:05.466Z,1001.2231
2019-03-15T00:07:17.203Z,1001.3212
2019-03-15T00:07:28.981Z,1001.3082
2019-03-15T00:07:41.261Z,1001.2737
2019-03-15T00:07:52.491Z,1001.2793
2019-03-15T00:08:04.258Z,1001.3384
2019-03-15T00:08:16.084Z,1001.3067
2019-03-15T00:08:27.841Z,1001.3018
2019-03-15T00:08:39.623Z,1001.3546
2019-03-15T00:08:51.388Z,1001.2729
2019-03-15T00:09:03.194Z,1001.2827
2019-03-15T00:09:14.988Z,1001.3426
2019-03-15T00:09:26.712Z,1001.3104
2019-03-15T00:09:38.504Z,1001.2745
2019-03-15T00:09:50.254Z,1001.3269
2019-03-15T00:10:02.052Z,1001.3682
2019-03-15T00:10:14.243Z,1001.3171
2019-03-15T00:10:25.583Z,1001.3629
2019-03-15T00:10:37.352Z,1001.3121
2019-03-15T00:10:49.133Z,1001.2794
2019-03-15T00:11:00.889Z,1001.2862
2019-03-15T00:11:12.667Z,1001.319
2019-03-15T00:11:24.430Z,1001.3355
2019-03-15T00:11:36.196Z,1001.2881
2019-03-15T00:11:47.971Z,1001.2761
2019-03-15T00:11:59.752Z,1001.2778
2019-03-15T00:12:11.533Z,1001.2614
2019-03-15T00:12:23.268Z,1001.3138
2019-03-15T00:12:35.079Z,1001.242
2019-03-15T00:12:47.249Z,1001.2827
2019-03-15T00:12:58.579Z,1001.3056
2019-03-15T00:13:10.372Z,1001.3077
2019-03-15T00:13:22.125Z,1001.2848
2019-03-15T00:13:33.930Z,1001.2993
2019-03-15T00:13:45.668Z,1001.306
2019-03-15T00:13:57.462Z,1001.3386
2019-03-15T00:14:09.230Z,1001.3289
2019-03-15T00:14:21.985Z,1001.3699
2019-03-15T00:14:33.751Z,1001.3289
2019-03-15T00:14:45.517Z,1001.3125
2019-03-15T00:14:57.256Z,1001.3096
2019-03-15T00:15:09.000Z,1001.3521
2019-03-15T00:15:20.787Z,1001.3485
2019-03-15T00:15:32.542Z,1001.3343
2019-03-15T00:15:44.285Z,1001.3501
2019-03-15T00:15:56.049Z,1001.414
2019-03-15T00:16:07.831Z,1001.3453
2019-03-15T00:16:19.577Z,1001.3795
2019-03-15T00:16:31.357Z,1001.347
2019-03-15T00:16:43.098Z,1001.3386
2019-03-15T00:16:54.855Z,1001.3579
2019-03-15T00:17:06.619Z,1001.3488
2019-03-15T00:17:18.375Z,1001.344
2019-03-15T00:17:30.144Z,1001.373
2019-03-15T00:17:41.895Z,1001.3685
2019-03-15T00:17:53.672Z,1001.3505
2019-03-15T00:18:05.431Z,1001.3343
2019-03-15T00:18:17.182Z,1001.3604
2019-03-15T00:18:28.955Z,1001.4041
2019-03-15T00:18:40.693Z,1001.3538
2019-03-15T00:18:52.491Z,1001.3562
2019-03-15T00:19:04.245Z,1001.3485
2019-03-15T00:19:15.996Z,1001.3153
2019-03-15T00:19:27.811Z,1001.3332
2019-03-15T00:19:39.666Z,1001.3358
2019-03-15T00:19:51.383Z,1001.3325
2019-03-15T00:20:03.166Z,1001.3529
2019-03-15T00:20:14.949Z,1001.4085
2019-03-15T00:20:26.840Z,1001.3823
2019-03-15T00:20:38.574Z,1001.384
2019-03-15T00:20:50.334Z,1001.4074
2019-03-15T00:21:02.122Z,1001.3954
2019-03-15T00:21:13.886Z,1001.3954
2019-03-15T00:21:25.636Z,1001.3643
2019-03-15T00:21:37.377Z,1001.4173
2019-03-15T00:21:49.154Z,1001.4199
2019-03-15T00:22:00.954Z,1001.4353
2019-03-15T00:22:12.712Z,1001.354
2019-03-15T00:22:24.517Z,1001.426
2019-03-15T00:22:36.282Z,1001.45
2019-03-15T00:22:48.044Z,1001.4204
2019-03-15T00:22:59.824Z,1001.4282
2019-03-15T00:23:11.588Z,1001.4107
2019-03-15T00:23:23.329Z,1001.4343
2019-03-15T00:23:35.092Z,1001.4593
2019-03-15T00:23:46.869Z,1001.4489
2019-03-15T00:23:58.625Z,1001.4173
2019-03-15T00:24:10.365Z,1001.4926
2019-03-15T00:24:22.125Z,1001.4653
2019-03-15T00:24:33.913Z,1001.4408
2019-03-15T00:24:45.656Z,1001.4621
2019-03-15T00:24:57.426Z,1001.395
2019-03-15T00:25:09.176Z,1001.4
2019-03-15T00:25:20.933Z,1001.3884
2019-03-15T00:25:32.764Z,1001.4398
2019-03-15T00:25:44.543Z,1001.4359
2019-03-15T00:25:56.289Z,1001.4065
2019-03-15T00:26:08.022Z,1001.4074
2019-03-15T00:26:19.791Z,1001.3693
2019-03-15T00:26:31.576Z,1001.384
2019-03-15T00:26:43.363Z,1001.3939
2019-03-15T00:26:55.127Z,1001.3989
2019-03-15T00:27:06.914Z,1001.4299
2019-03-15T00:27:18.647Z,1001.4038
2019-03-15T00:27:30.404Z,1001.3447
2019-03-15T00:27:42.190Z,1001.3792
2019-03-15T00:27:53.950Z,1001.3596
2019-03-15T00:28:05.760Z,1001.3781
2019-03-15T00:28:17.511Z,1001.4021
2019-03-15T00:28:29.266Z,1001.4174
2019-03-15T00:28:41.023Z,1001.3421
2019-03-15T00:28:52.771Z,1001.3978
2019-03-15T00:29:04.519Z,1001.3322
2019-03-15T00:29:16.307Z,1001.3743
2019-03-15T00:29:28.017Z,1001.4207
2019-03-15T00:29:39.795Z,1001.3715
2019-03-15T00:29:51.575Z,1001.3623
2019-03-15T00:30:03.322Z,1001.359
2019-03-15T00:30:15.104Z,1001.3651
2019-03-15T00:30:26.909Z,1001.3684
2019-03-15T00:30:38.677Z,1001.3568
2019-03-15T00:30:50.446Z,1001.3786
2019-03-15T00:31:02.224Z,1001.3634
2019-03-15T00:31:14.004Z,1001.3737
2019-03-15T00:31:25.780Z,1001.4109
2019-03-15T00:31:37.683Z,1001.3656
2019-03-15T00:31:49.324Z,1001.3662
2019-03-15T00:32:01.106Z,1001.3886
2019-03-15T00:32:12.889Z,1001.4365
2019-03-15T00:32:24.616Z,1001.3449
2019-03-15T00:32:36.379Z,1001.4006
2019-03-15T00:32:48.160Z,1001.3679
2019-03-15T00:32:59.925Z,1001.376
2019-03-15T00:33:11.679Z,1001.3908
2019-03-15T00:33:24.487Z,1001.3957
2019-03-15T00:33:36.214Z,1001.3973
2019-03-15T00:33:47.975Z,1001.4503
2019-03-15T00:33:59.737Z,1001.4422
2019-03-15T00:34:11.487Z,1001.5042
2019-03-15T00:34:23.262Z,1001.4354
2019-03-15T00:34:35.048Z,1001.4349
2019-03-15T00:34:46.842Z,1001.4943
2019-03-15T00:34:58.613Z,1001.4454
2019-03-15T00:35:10.373Z,1001.4846
2019-03-15T00:35:22.136Z,1001.4912
2019-03-15T00:35:33.929Z,1001.4061
2019-03-15T00:35:45.685Z,1001.4896
2019-03-15T00:35:57.494Z,1001.5305
2019-03-15T00:36:09.267Z,1001.4601
2019-03-15T00:36:27.333Z,1001.5206
2019-03-15T00:36:39.101Z,1001.5452
2019-03-15T00:36:50.904Z,1001.5764
2019-03-15T00:37:02.658Z,1001.5404
2019-03-15T00:37:14.409Z,1001.5371
2019-03-15T00:37:26.190Z,1001.5484
2019-03-15T00:37:37.963Z,1001.5273
2019-03-15T00:37:49.714Z,1001.4968
2019-03-15T00:38:01.469Z,1001.5293
2019-03-15T00:38:13.254Z,1001.4968
2019-03-15T00:38:25.012Z,1001.4667
2019-03-15T00:38:36.764Z,1001.4689
2019-03-15T00:38:48.567Z,1001.4968
2019-03-15T00:39:00.291Z,1001.466
2019-03-15T00:39:12.048Z,1001.4721
2019-03-15T00:39:23.817Z,1001.4071
2019-03-15T00:39:35.606Z,1001.4677
2019-03-15T00:39:47.536Z,1001.4581
2019-03-15T00:40:00.279Z,1001.4187
2019-03-15T00:40:11.971Z,1001.4553
2019-03-15T00:40:23.724Z,1001.429
2019-03-15T00:40:35.488Z,1001.4744
2019-03-15T00:40:47.261Z,1001.4406
2019-03-15T00:40:58.997Z,1001.3652
2019-03-15T00:41:11.082Z,1001.3931
2019-03-15T00:41:22.540Z,1001.379
2019-03-15T00:41:34.326Z,1001.3937
2019-03-15T00:41:46.108Z,1001.3843
2019-03-15T00:41:57.869Z,1001.3952
2019-03-15T00:42:09.617Z,1001.3861
2019-03-15T00:42:21.516Z,1001.3888
2019-03-15T00:42:33.302Z,1001.3545
2019-03-15T00:42:45.089Z,1001.3364
2019-03-15T00:42:56.836Z,1001.3549
2019-03-15T00:43:08.589Z,1001.3419
2019-03-15T00:43:20.355Z,1001.3981
2019-03-15T00:43:32.123Z,1001.3801
2019-03-15T00:43:43.910Z,1001.409
2019-03-15T00:43:55.686Z,1001.3926
2019-03-15T00:44:07.460Z,1001.409
2019-03-15T00:44:19.236Z,1001.3659
2019-03-15T00:44:31.010Z,1001.397
2019-03-15T00:44:42.823Z,1001.4282
2019-03-15T00:44:54.582Z,1001.3593
2019-03-15T00:45:08.200Z,1001.3403
2019-03-15T00:45:19.107Z,1001.3641
2019-03-15T00:45:30.871Z,1001.4375
2019-03-15T00:45:42.632Z,1001.3698
2019-03-15T00:45:54.394Z,1001.3933
2019-03-15T00:46:06.156Z,1001.2982
2019-03-15T00:46:17.950Z,1001.3665
2019-03-15T00:46:29.692Z,1001.3943
2019-03-15T00:46:41.441Z,1001.4193
2019-03-15T00:46:53.201Z,1001.4406
2019-03-15T00:47:04.953Z,1001.3834
2019-03-15T00:47:17.384Z,1001.4046
2019-03-15T00:47:28.506Z,1001.3432
2019-03-15T00:47:40.264Z,1001.4183
2019-03-15T00:47:52.034Z,1001.4282
2019-03-15T00:48:03.785Z,1001.3421
2019-03-15T00:48:15.546Z,1001.3923
2019-03-15T00:48:27.339Z,1001.4365
2019-03-15T00:48:39.114Z,1001.4053
2019-03-15T00:48:50.866Z,1001.4392
2019-03-15T00:49:02.618Z,1001.4238
2019-03-15T00:49:14.396Z,1001.4125
2019-03-15T00:49:26.146Z,1001.4299
2019-03-15T00:49:37.951Z,1001.509
2019-03-15T00:49:49.681Z,1001.4305
2019-03-15T00:50:01.446Z,1001.4227
2019-03-15T00:50:13.209Z,1001.382
2019-03-15T00:50:24.951Z,1001.3982
2019-03-15T00:50:36.715Z,1001.4682
2019-03-15T00:50:48.463Z,1001.4589
2019-03-15T00:51:00.216Z,1001.4501
2019-03-15T00:51:11.984Z,1001.4714
2019-03-15T00:51:23.896Z,1001.4877
2019-03-15T00:51:35.544Z,1001.46
2019-03-15T00:51:47.274Z,1001.4481
2019-03-15T00:51:59.029Z,1001.454
2019-03-15T00:52:10.826Z,1001.5134
2019-03-15T00:52:22.602Z,1001.5085
2019-03-15T00:52:34.362Z,1001.4857
2019-03-15T00:52:46.120Z,1001.4593
2019-03-15T00:52:57.891Z,1001.4595
2019-03-15T00:53:09.632Z,1001.4366
2019-03-15T00:53:21.401Z,1001.4824
2019-03-15T00:53:33.177Z,1001.4714
2019-03-15T00:53:44.944Z,1001.4595
2019-03-15T00:53:56.712Z,1001.4616
2019-03-15T00:54:08.455Z,1001.4796
2019-03-15T00:54:20.210Z,1001.4726
2019-03-15T00:54:31.981Z,1001.4307
2019-03-15T00:54:43.769Z,1001.4421
2019-03-15T00:54:55.518Z,1001.4717
2019-03-15T00:55:07.277Z,1001.4732
2019-03-15T00:55:19.675Z,1001.4586
2019-03-15T00:55:30.790Z,1001.4945
2019-03-15T00:55:42.543Z,1001.4486
2019-03-15T00:55:54.323Z,1001.4863
2019-03-15T00:56:06.066Z,1001.483
2019-03-15T00:56:17.865Z,1001.4378
2019-03-15T00:56:29.597Z,1001.4318
2019-03-15T00:56:41.359Z,1001.5328
2019-03-15T00:56:53.131Z,1001.4967
2019-03-15T00:57:04.880Z,1001.4334
2019-03-15T00:57:16.633Z,1001.4498
2019-03-15T00:57:28.391Z,1001.4226
2019-03-15T00:57:40.132Z,1001.5338
2019-03-15T00:57:51.897Z,1001.4372
2019-03-15T00:58:03.675Z,1001.4701
2019-03-15T00:58:15.442Z,1001.4875
2019-03-15T00:58:27.289Z,1001.4996
2019-03-15T00:58:39.047Z,1001.4836
2019-03-15T00:58:50.836Z,1001.5017
2019-03-15T00:59:02.689Z,1001.5098
2019-03-15T00:59:14.370Z,1001.4854
2019-03-15T00:59:27.110Z,1001.4798
2019-03-15T00:59:38.868Z,1001.5125
2019-03-15T00:59:50.609Z,1001.5312
2019-03-15T01:00:02.369Z,1001.505
2019-03-15T01:00:14.133Z,1001.5573
2019-03-15T01:00:25.899Z,1001.5371
2019-03-15T01:00:37.701Z,1001.5404
2019-03-15T01:00:49.462Z,1001.5654
2019-03-15T01:01:01.241Z,1001.5476
2019-03-15T01:01:12.974Z,1001.559
2019-03-15T01:01:24.756Z,1001.5889
2019-03-15T01:01:36.512Z,1001.5164
2019-03-15T01:01:48.265Z,1001.5441
2019-03-15T01:02:00.179Z,1001.5448
2019-03-15T01:02:11.793Z,1001.5384
2019-03-15T01:02:23.542Z,1001.5285
2019-03-15T01:02:35.285Z,1001.5643
2019-03-15T01:02:47.038Z,1001.5349
2019-03-15T01:02:58.808Z,1001.5365
2019-03-15T01:03:10.554Z,1001.5208
2019-03-15T01:03:22.298Z,1001.4962
2019-03-15T01:03:34.208Z,1001.5463
2019-03-15T01:03:45.983Z,1001.5384
2019-03-15T01:03:57.759Z,1001.5404
2019-03-15T01:04:09.768Z,1001.5717
2019-03-15T01:04:21.323Z,1001.5164
2019-03-15T01:04:33.053Z,1001.541
2019-03-15T01:04:44.808Z,1001.536
2019-03-15T01:04:56.551Z,1001.6113
2019-03-15T01:05:08.326Z,1001.5246
2019-03-15T01:05:20.094Z,1001.5229
2019-03-15T01:05:31.854Z,1001.5656
2019-03-15T01:05:43.622Z,1001.5772
2019-03-15T01:05:55.414Z,1001.5923
2019-03-15T01:06:07.151Z,1001.5513
2019-03-15T01:06:18.917Z,1001.5564
2019-03-15T01:06:30.696Z,1001.5744
2019-03-15T01:06:42.472Z,1001.5875
2019-03-15T01:06:54.204Z,1001.63
2019-03-15T01:07:05.998Z,1001.6436
2019-03-15T01:07:17.742Z,1001.6612
2019-03-15T01:07:29.510Z,1001.6546
2019-03-15T01:07:41.285Z,1001.6141
2019-03-15T01:07:53.064Z,1001.577
2019-03-15T01:08:04.850Z,1001.6077
2019-03-15T01:08:16.622Z,1001.5934
2019-03-15T01:08:28.442Z,1001.6704
2019-03-15T01:08:40.197Z,1001.5967
2019-03-15T01:08:52.001Z,1001.6311
2019-03-15T01:09:03.782Z,1001.6846
2019-03-15T01:09:15.524Z,1001.6828
2019-03-15T01:09:27.260Z,1001.6649
2019-03-15T01:09:39.171Z,1001.6507
2019-03-15T01:09:50.939Z,1001.6415
2019-03-15T01:10:02.719Z,1001.6682
2019-03-15T01:10:14.493Z,1001.6212
2019-03-15T01:10:26.250Z,1001.6884
2019-03-15T01:10:38.011Z,1001.6818
2019-03-15T01:10:49.779Z,1001.6376
2019-03-15T01:11:01.528Z,1001.6496
2019-03-15T01:11:13.301Z,1001.6632
2019-03-15T01:11:25.057Z,1001.6896
2019-03-15T01:11:36.802Z,1001.6556
2019-03-15T01:11:48.519Z,1001.6621
2019-03-15T01:12:00.294Z,1001.6878
2019-03-15T01:12:12.042Z,1001.6501
2019-03-15T01:12:23.801Z,1001.7162
2019-03-15T01:12:35.586Z,1001.7106
2019-03-15T01:12:47.346Z,1001.6618
2019-03-15T01:12:59.107Z,1001.6851
2019-03-15T01:13:10.837Z,1001.6741
2019-03-15T01:13:22.608Z,1001.684
2019-03-15T01:13:34.354Z,1001.7243
2019-03-15T01:13:46.144Z,1001.7015
2019-03-15T01:13:57.889Z,1001.7065
2019-03-15T01:14:09.637Z,1001.7528
2019-03-15T01:14:21.433Z,1001.6542
2019-03-15T01:14:33.222Z,1001.6965
2019-03-15T01:14:45.041Z,1001.7065
2019-03-15T01:14:56.859Z,1001.6787
2019-03-15T01:15:08.570Z,1001.6425
2019-03-15T01:15:20.310Z,1001.6361
2019-03-15T01:15:32.064Z,1001.6818
2019-03-15T01:15:43.815Z,1001.6562
2019-03-15T01:15:55.582Z,1001.6607
2019-03-15T01:16:07.327Z,1001.6557
2019-03-15T01:16:19.093Z,1001.6889
2019-03-15T01:16:30.850Z,1001.6906
2019-03-15T01:16:42.636Z,1001.6875
2019-03-15T01:16:54.414Z,1001.6656
2019-03-15T01:17:06.174Z,1001.6954
2019-03-15T01:17:17.958Z,1001.6709
2019-03-15T01:17:29.704Z,1001.6906
2019-03-15T01:17:41.460Z,1001.6954
2019-03-15T01:17:53.256Z,1001.7265
2019-03-15T01:18:05.016Z,1001.6796
2019-03-15T01:18:16.793Z,1001.7987
2019-03-15T01:18:28.589Z,1001.7337
2019-03-15T01:18:40.346Z,1001.7107
2019-03-15T01:18:52.102Z,1001.738
2019-03-15T01:19:03.846Z,1001.8428
2019-03-15T01:19:15.597Z,1001.856
2019-03-15T01:19:27.352Z,1001.8292
2019-03-15T01:19:39.179Z,1001.8193
2019-03-15T01:19:50.935Z,1001.7817
2019-03-15T01:20:02.894Z,1001.8461
2019-03-15T01:20:14.451Z,1001.821
2019-03-15T01:20:26.203Z,1001.7778
2019-03-15T01:20:37.995Z,1001.8521
2019-03-15T01:20:49.770Z,1001.8543
2019-03-15T01:21:01.552Z,1001.7937
2019-03-15T01:21:13.335Z,1001.8782
2019-03-15T01:21:26.069Z,1001.8439
2019-03-15T01:21:37.865Z,1001.8308
2019-03-15T01:21:49.606Z,1001.8717
2019-03-15T01:22:01.386Z,1001.9612
2019-03-15T01:22:13.153Z,1001.8975
2019-03-15T01:22:24.919Z,1001.8914
2019-03-15T01:22:36.709Z,1001.8493
2019-03-15T01:22:48.488Z,1001.869
2019-03-15T01:23:00.224Z,1001.8462
2019-03-15T01:23:11.966Z,1001.8608
2019-03-15T01:23:23.706Z,1001.8401
2019-03-15T01:23:35.482Z,1001.8521
2019-03-15T01:23:47.257Z,1001.87
2019-03-15T01:23:59.012Z,1001.82
2019-03-15T01:24:10.762Z,1001.8635
2019-03-15T01:24:22.505Z,1001.875
2019-03-15T01:24:34.298Z,1001.8373
2019-03-15T01:24:46.052Z,1001.8576
2019-03-15T01:24:57.821Z,1001.87
2019-03-15T01:25:09.600Z,1001.8389
2019-03-15T01:25:21.495Z,1001.6859
2019-03-15T01:25:33.271Z,1001.8334
2019-03-15T01:25:45.028Z,1001.8552
2019-03-15T01:25:56.817Z,1001.7965
2019-03-15T01:26:08.581Z,1001.8046
2019-03-15T01:26:20.338Z,1001.7697
2019-03-15T01:26:32.115Z,1001.7845
2019-03-15T01:26:44.088Z,1001.779
2019-03-15T01:26:55.662Z,1001.7583
2019-03-15T01:27:07.416Z,1001.8641
2019-03-15T01:27:19.203Z,1001.7009
2019-03-15T01:27:30.975Z,1001.7893
2019-03-15T01:27:42.737Z,1001.7795
2019-03-15T01:27:54.489Z,1001.7806
2019-03-15T01:28:06.237Z,1001.8662
2019-03-15T01:28:18.001Z,1001.7692
2019-03-15T01:28:29.746Z,1001.7462
2019-03-15T01:28:41.520Z,1001.7429
2019-03-15T01:28:53.283Z,1001.7774
2019-03-15T01:29:06.039Z,1001.792
2019-03-15T01:29:17.836Z,1001.7709
2019-03-15T01:29:29.582Z,1001.7723
2019-03-15T01:29:41.356Z,1001.8117
2019-03-15T01:29:53.131Z,1001.7878
2019-03-15T01:30:05.081Z,1001.774
2019-03-15T01:30:16.655Z,1001.8663
2019-03-15T01:30:28.452Z,1001.774
2019-03-15T01:30:40.206Z,1001.7996
2019-03-15T01:30:51.966Z,1001.8879
2019-03-15T01:31:03.739Z,1001.8078
2019-03-15T01:31:15.498Z,1001.7385
2019-03-15T01:31:27.246Z,1001.9724
2019-03-15T01:31:39.014Z,1001.8204
2019-03-15T01:31:50.775Z,1001.9479
2019-03-15T01:32:02.527Z,1001.8225
2019-03-15T01:32:14.300Z,1001.9125
2019-03-15T01:32:26.106Z,1001.8548
2019-03-15T01:32:37.805Z,1001.9121
2019-03-15T01:32:49.603Z,1001.9759
2019-03-15T01:33:01.368Z,1001.9043
2019-03-15T01:33:13.158Z,1001.8579
2019-03-15T01:33:24.950Z,1001.8546
2019-03-15T01:33:36.715Z,1001.8906
2019-03-15T01:33:48.490Z,1001.8679
2019-03-15T01:34:00.241Z,1001.8482
2019-03-15T01:34:12.027Z,1001.8182
2019-03-15T01:34:23.823Z,1001.9398
2019-03-15T01:34:35.566Z,1001.8236
2019-03-15T01:34:47.319Z,1001.9201
2019-03-15T01:34:59.069Z,1001.799
2019-03-15T01:35:10.837Z,1001.8662
2019-03-15T01:35:22.611Z,1001.7337
2019-03-15T01:35:34.322Z,1001.8214
2019-03-15T01:35:46.063Z,1001.7549
2019-03-15T01:35:57.829Z,1001.8737
2019-03-15T01:36:09.598Z,1001.8541
2019-03-15T01:36:21.337Z,1001.7598
2019-03-15T01:36:33.113Z,1001.7745
2019-03-15T01:36:44.883Z,1001.8134
2019-03-15T01:36:56.668Z,1001.7761
2019-03-15T01:37:08.421Z,1001.8329
2019-03-15T01:37:20.173Z,1001.8383
2019-03-15T01:37:31.958Z,1001.8482
2019-03-15T01:37:43.749Z,1001.8203
2019-03-15T01:37:55.564Z,1001.8318
2019-03-15T01:38:07.300Z,1001.9327
2019-03-15T01:38:19.059Z,1001.8443
2019-03-15T01:38:30.805Z,1001.8707
2019-03-15T01:38:42.568Z,1001.912
2019-03-15T01:38:54.321Z,1001.8329
2019-03-15T01:39:06.085Z,1001.7794
2019-03-15T01:39:17.826Z,1001.8951
2019-03-15T01:39:30.602Z,1001.907
2019-03-15T01:39:42.374Z,1001.9168
2019-03-15T01:39:54.150Z,1001.9015
2019-03-15T01:40:05.917Z,1001.9185
2019-03-15T01:40:17.675Z,1001.905
2019-03-15T01:40:29.447Z,1001.9229
2019-03-15T01:40:41.206Z,1001.9425
2019-03-15T01:40:52.962Z,1001.9148
2019-03-15T01:41:04.737Z,1001.8917
2019-03-15T01:41:16.513Z,1001.8936
2019-03-15T01:41:28.251Z,1001.9015
2019-03-15T01:41:39.996Z,1001.9829
2019-03-15T01:41:51.774Z,1001.9512
2019-03-15T01:42:03.548Z,1001.9266
2019-03-15T01:42:15.301Z,1001.8947
2019-03-15T01:42:27.051Z,1001.9066
2019-03-15T01:42:38.833Z,1001.9176
2019-03-15T01:42:50.602Z,1001.9458
2019-03-15T01:43:02.383Z,1001.9261
2019-03-15T01:43:14.142Z,1001.9191
2019-03-15T01:43:25.921Z,1001.9392
2019-03-15T01:43:38.438Z,1001.9159
2019-03-15T01:43:49.435Z,1001.8782
2019-03-15T01:44:01.184Z,1001.8978
2019-03-15T01:44:12.960Z,1001.906
2019-03-15T01:44:24.710Z,1001.9277
2019-03-15T01:44:36.483Z,1001.9176
2019-03-15T01:44:48.253Z,1001.9028
2019-03-15T01:45:00.042Z,1001.9601
2019-03-15T01:45:11.784Z,1001.9572
2019-03-15T01:45:23.548Z,1001.9213
2019-03-15T01:45:35.297Z,1001.9479
2019-03-15T01:45:47.061Z,1001.9754
2019-03-15T01:45:58.808Z,1001.9628
2019-03-15T01:46:10.590Z,1001.9054
2019-03-15T01:46:22.358Z,1001.9623
2019-03-15T01:46:34.122Z,1001.9819
2019-03-15T01:46:45.863Z,1001.979
2019-03-15T01:46:57.624Z,1001.9643
2019-03-15T01:47:09.380Z,1002.0037
2019-03-15T01:47:21.115Z,1002.0462
2019-03-15T01:47:32.894Z,1001.9545
2019-03-15T01:47:44.641Z,1002.025
2019-03-15T01:47:56.435Z,1002.0042
2019-03-15T01:48:08.199Z,1002.0336
2019-03-15T01:48:19.970Z,1002.0578
2019-03-15T01:48:31.729Z,1002.074
2019-03-15T01:48:43.482Z,1002.0462
2019-03-15T01:48:55.247Z,1002.061
2019-03-15T01:49:07.004Z,1002.0806
2019-03-15T01:49:18.766Z,1002.0676
2019-03-15T01:49:30.550Z,1002.0434
2019-03-15T01:49:44.485Z,1002.0298
2019-03-15T01:49:55.092Z,1002.0336
2019-03-15T01:50:06.826Z,1001.9976
2019-03-15T01:50:18.591Z,1002.0353
2019-03-15T01:50:30.340Z,1002.0238
2019-03-15T01:50:42.093Z,1002.014
2019-03-15T01:50:53.894Z,1001.9665
2019-03-15T01:51:05.647Z,1001.9943
2019-03-15T01:51:17.491Z,1002.0206
2019-03-15T01:51:29.240Z,1001.9338
2019-03-15T01:51:41.485Z,1001.9311
2019-03-15T01:51:52.738Z,1001.9356
2019-03-15T01:52:04.498Z,1001.9296
2019-03-15T01:52:16.292Z,1001.954
2019-03-15T01:52:28.032Z,1001.8607
2019-03-15T01:52:39.958Z,1001.916
2019-03-15T01:52:51.631Z,1001.8853
2019-03-15T01:53:03.400Z,1001.8364
2019-03-15T01:53:15.154Z,1001.9157
2019-03-15T01:53:26.927Z,1001.8646
2019-03-15T01:53:38.681Z,1001.8172
2019-03-15T01:53:50.461Z,1001.8838
2019-03-15T01:54:02.216Z,1001.9426
2019-03-15T01:54:13.977Z,1001.804
2019-03-15T01:54:25.735Z,1001.8576
2019-03-15T01:54:37.490Z,1001.8739
2019-03-15T01:54:49.267Z,1001.8596
2019-03-15T01:55:01.025Z,1001.8886
2019-03-15T01:55:12.828Z,1001.8318
2019-03-15T01:55:24.584Z,1001.8264
2019-03-15T01:55:36.376Z,1001.8248
2019-03-15T01:55:48.125Z,1001.8107
2019-03-15T01:56:00.044Z,1001.8772
2019-03-15T01:56:11.698Z,1001.8004
2019-03-15T01:56:23.463Z,1001.9332
2019-03-15T01:56:35.205Z,1001.8123
2019-03-15T01:56:46.998Z,1001.8204
2019-03-15T01:56:58.758Z,1001.8869
2019-03-15T01:57:10.531Z,1001.8662
2019-03-15T01:57:22.334Z,1001.7996
2019-03-15T01:57:34.103Z,1001.8357
2019-03-15T01:57:45.882Z,1001.9087
2019-03-15T01:57:57.653Z,1001.9011
2019-03-15T01:58:09.412Z,1001.9017
2019-03-15T01:58:21.165Z,1001.8978
2019-03-15T01:58:32.924Z,1001.9416
2019-03-15T01:58:44.699Z,1001.8947
2019-03-15T01:58:56.454Z,1001.8793
2019-03-15T01:59:08.208Z,1001.947
2019-03-15T01:59:20.156Z,1001.91
2019-03-15T01:59:31.755Z,1001.9224
2019-03-15T01:59:43.526Z,1001.9562
2019-03-15T01:59:55.285Z,1001.9104
2019-03-15T02:00:07.048Z,1001.9628
2019-03-15T02:00:18.781Z,1001.9912
2019-03-15T02:00:30.521Z,1001.9104
2019-03-15T02:00:42.296Z,1002.0006
2019-03-15T02:00:54.040Z,1001.9126
2019-03-15T02:01:05.824Z,1001.911
2019-03-15T02:01:17.604Z,1001.8833
2019-03-15T02:01:29.533Z,1001.8425
2019-03-15T02:01:42.155Z,1001.8582
2019-03-15T02:01:53.918Z,1001.8461
2019-03-15T02:02:05.659Z,1001.875
2019-03-15T02:02:17.414Z,1001.8293
2019-03-15T02:02:29.195Z,1001.8635
2019-03-15T02:02:40.963Z,1001.8314
2019-03-15T02:02:52.739Z,1001.8374
2019-03-15T02:03:04.524Z,1001.8375
2019-03-15T02:03:16.287Z,1001.8193
2019-03-15T02:03:28.079Z,1001.8314
2019-03-15T02:03:39.827Z,1001.8184
2019-03-15T02:03:51.628Z,1001.9001
2019-03-15T02:04:03.356Z,1001.8679
2019-03-15T02:04:15.129Z,1001.8532
2019-03-15T02:04:26.888Z,1001.8353
2019-03-15T02:04:38.650Z,1001.8021
2019-03-15T02:04:50.411Z,1001.8397
2019-03-15T02:05:02.181Z,1001.8461
2019-03-15T02:05:13.941Z,1001.8626
2019-03-15T02:05:25.702Z,1001.8728
2019-03-15T02:05:37.424Z,1001.808
2019-03-15T02:05:49.192Z,1001.8092
2019-03-15T02:06:00.957Z,1001.8843
2019-03-15T02:06:12.737Z,1001.8223
2019-03-15T02:06:24.477Z,1001.8397
2019-03-15T02:06:36.256Z,1001.8669
2019-03-15T02:06:48.048Z,1001.8423
2019-03-15T02:06:59.829Z,1001.9498
2019-03-15T02:07:11.611Z,1001.8521
2019-03-15T02:07:23.392Z,1001.8833
2019-03-15T02:07:35.181Z,1001.7868
2019-03-15T02:07:46.925Z,1001.8423
2019-03-15T02:07:58.670Z,1001.8047
2019-03-15T02:08:10.435Z,1001.8085
2019-03-15T02:08:22.221Z,1001.7754
2019-03-15T02:08:33.978Z,1001.7476
2019-03-15T02:08:45.727Z,1001.8052
2019-03-15T02:08:57.488Z,1001.8118
2019-03-15T02:09:09.550Z,1001.8131
2019-03-15T02:09:21.010Z,1001.8107
2019-03-15T02:09:32.781Z,1001.8233
2019-03-15T02:09:44.717Z,1001.8314
2019-03-15T02:09:56.351Z,1001.8359
2019-03-15T02:10:08.110Z,1001.8179
2019-03-15T02:10:22.007Z,1001.7759
2019-03-15T02:10:32.591Z,1001.7584
2019-03-15T02:10:44.371Z,1001.807
2019-03-15T02:10:56.115Z,1001.7977
2019-03-15T02:11:07.878Z,1001.802
2019-03-15T02:11:19.628Z,1001.765
2019-03-15T02:11:31.399Z,1001.8527
2019-03-15T02:11:43.132Z,1001.7874
2019-03-15T02:11:55.524Z,1001.8283
2019-03-15T02:12:06.672Z,1001.8326
2019-03-15T02:12:18.463Z,1001.8332
2019-03-15T02:12:30.258Z,1001.8167
2019-03-15T02:12:42.051Z,1001.8532
2019-03-15T02:12:53.829Z,1001.8234
2019-03-15T02:13:05.600Z,1001.863
2019-03-15T02:13:17.347Z,1001.8387
2019-03-15T02:13:29.112Z,1001.837
2019-03-15T02:13:40.854Z,1001.8298
2019-03-15T02:13:52.609Z,1001.8287
2019-03-15T02:14:04.376Z,1001.9165
2019-03-15T02:14:16.151Z,1001.832
2019-03-15T02:14:27.923Z,1001.868
2019-03-15T02:14:39.696Z,1001.8478
2019-03-15T02:14:51.480Z,1001.8496